Time;durP1;ratioP1;P1;durP2;ratioP2;P2;SDS_P1;SDS_P2;PMS_P1;PMS_P2;Temp;Humidity;BMP_temperature;BMP_pressure;BME280_temperature;BME280_humidity;BME280_pressure;Samples;Min_cycle;Max_cycle;Signal;HPM_P1;HPM_P2
2023/01/04 00:00:08;;;;;;;;;3.00;2.67;;;;;12.13;75.30;101940.88;2105364;28;46448;-63
2023/01/04 00:01:13;;;;;;;;;3.25;2.00;;;;;12.14;75.23;101945.31;2114767;27;46550;-63
2023/01/04 00:02:14;;;;;;;;;4.25;3.00;;;;;12.15;75.22;101939.09;2106450;28;47185;-63
2023/01/04 00:03:14;;;;;;;;;2.00;2.00;;;;;12.14;75.32;101948.84;2106503;28;47097;-62
2023/01/04 00:04:14;;;;;;;;;2.00;2.00;;;;;12.12;75.16;101948.00;2108908;27;46441;-62
2023/01/04 00:05:15;;;;;;;;;8.00;3.00;;;;;12.13;75.23;101943.56;2108313;27;45083;-63
2023/01/04 00:06:16;;;;;;;;;2.67;2.67;;;;;12.13;75.23;101954.19;2105973;28;46336;-63
2023/01/04 00:07:16;;;;;;;;;2.00;2.00;;;;;12.11;75.37;101938.25;2107053;27;47078;-62
2023/01/04 00:08:16;;;;;;;;;5.00;3.00;;;;;12.12;75.37;101939.13;2109819;27;46821;-63
2023/01/04 00:09:17;;;;;;;;;3.00;3.00;;;;;12.11;75.21;101959.53;2110819;27;45439;-63
2023/01/04 00:10:17;;;;;;;;;2.33;2.33;;;;;12.11;75.11;101967.50;2106810;27;46014;-62
2023/01/04 00:11:20;;;;;;;;;1.00;1.00;;;;;12.11;75.02;101954.22;2113760;27;46973;-62
2023/01/04 00:12:20;;;;;;;;;2.50;2.25;;;;;12.11;75.14;101956.88;2114544;27;46330;-62
2023/01/04 00:13:20;;;;;;;;;4.00;3.00;;;;;12.12;75.31;101960.41;2108251;27;46418;-63
2023/01/04 00:14:21;;;;;;;;;3.00;3.00;;;;;12.14;75.22;101948.84;2106096;27;46344;-62
2023/01/04 00:15:21;;;;;;;;;3.33;3.00;;;;;12.14;75.31;101954.19;2105712;28;46575;-62
2023/01/04 00:16:24;;;;;;;;;3.00;3.00;;;;;12.16;75.05;101951.50;2108598;27;46333;-63
2023/01/04 00:17:24;;;;;;;;;3.00;2.25;;;;;12.17;75.08;101950.59;2103153;27;46413;-62
2023/01/04 00:18:25;;;;;;;;;2.67;2.00;;;;;12.16;75.14;101955.03;2105877;28;45163;-62
2023/01/04 00:19:25;;;;;;;;;2.00;2.00;;;;;12.18;75.12;101952.38;2111063;27;46793;-63
2023/01/04 00:20:25;;;;;;;;;4.00;3.00;;;;;12.18;75.17;101963.00;2108754;27;46473;-64
2023/01/04 00:21:28;;;;;;;;;2.67;2.67;;;;;12.18;75.44;101961.22;2107754;27;46591;-63
2023/01/04 00:22:33;;;;;;;;;3.00;3.00;;;;;12.19;75.09;101952.34;2107970;27;46739;-62
2023/01/04 00:23:33;;;;;;;;;3.00;3.00;;;;;12.20;75.07;101931.97;2105015;28;47093;-63
2023/01/04 00:24:33;;;;;;;;;3.33;3.33;;;;;12.21;75.07;101934.63;2105674;28;46500;-62
2023/01/04 00:25:37;;;;;;;;;2.33;2.33;;;;;12.22;74.89;101948.81;2114439;27;46884;-62
2023/01/04 00:26:37;;;;;;;;;4.75;2.25;;;;;12.22;75.31;101941.69;2114711;27;45348;-62
2023/01/04 00:27:38;;;;;;;;;4.00;4.00;;;;;12.23;74.85;101958.56;2110068;27;46145;-63
2023/01/04 00:28:38;;;;;;;;;2.00;2.00;;;;;12.22;74.97;101932.84;2106655;27;45827;-63
2023/01/04 00:29:39;;;;;;;;;3.00;3.00;;;;;12.23;74.80;101939.91;2114159;27;46214;-63
2023/01/04 00:30:39;;;;;;;;;3.00;3.00;;;;;12.22;75.02;101930.16;2111534;27;46753;-62
2023/01/04 00:31:40;;;;;;;;;3.00;3.00;;;;;12.21;75.07;101939.94;2108840;27;45935;-63
2023/01/04 00:32:40;;;;;;;;;3.00;3.00;;;;;12.22;75.04;101940.81;2107993;27;46909;-62
2023/01/04 00:33:41;;;;;;;;;2.00;2.00;;;;;12.21;75.18;101939.94;2111796;27;46912;-62
2023/01/04 00:34:41;;;;;;;;;3.00;2.25;;;;;12.22;74.97;101943.47;2104069;28;45943;-62
2023/01/04 00:35:42;;;;;;;;;4.00;2.00;;;;;12.23;75.17;101945.25;2101310;28;47547;-63
2023/01/04 00:36:44;;;;;;;;;5.00;5.00;;;;;12.23;75.07;101946.13;2105425;28;46413;-62
2023/01/04 00:37:44;;;;;;;;;3.50;3.50;;;;;12.22;74.96;101933.72;2089326;28;46878;-63
2023/01/04 00:38:44;;;;;;;;;3.33;3.00;;;;;12.23;74.93;101935.47;2108903;27;46734;-62
2023/01/04 00:39:45;;;;;;;;;3.67;3.00;;;;;12.24;75.04;101941.69;2108469;27;44956;-61
2023/01/04 00:40:45;;;;;;;;;4.67;3.67;;;;;12.25;75.02;101936.34;2108416;27;45559;-62
2023/01/04 00:41:50;;;;;;;;;5.67;4.67;;;;;12.26;74.90;101937.22;2105591;28;45455;-63
2023/01/04 00:42:51;;;;;;;;;4.75;4.00;;;;;12.27;75.14;101925.69;2106813;27;46440;-62
2023/01/04 00:43:51;;;;;;;;;3.00;3.00;;;;;12.27;75.12;101933.66;2107601;27;46788;-62
2023/01/04 00:44:51;;;;;;;;;3.33;3.33;;;;;12.28;74.86;101927.44;2109505;27;46908;-63
2023/01/04 00:45:53;;;;;;;;;3.00;3.00;;;;;12.29;74.94;101927.41;2108089;27;46673;-62
2023/01/04 00:46:53;;;;;;;;;4.00;4.00;;;;;12.28;74.68;101933.63;2112465;27;46321;-63
2023/01/04 00:47:53;;;;;;;;;3.00;1.67;;;;;12.29;74.94;101922.09;2108285;27;46620;-63
2023/01/04 00:48:54;;;;;;;;;3.00;3.00;;;;;12.30;75.00;101931.84;2109619;27;46696;-63
2023/01/04 00:49:54;;;;;;;;;3.00;3.00;;;;;12.30;74.98;101925.63;2111724;27;46910;-62
2023/01/04 00:50:55;;;;;;;;;2.33;2.33;;;;;12.29;74.95;101930.09;2113845;27;46383;-63
2023/01/04 00:51:56;;;;;;;;;3.00;3.00;;;;;12.28;75.05;101930.09;2102633;28;46728;-62
2023/01/04 00:52:56;;;;;;;;;2.75;2.75;;;;;12.29;75.10;101921.22;2102083;27;46297;-62
2023/01/04 00:53:59;;;;;;;;;0.67;0.00;;;;;12.29;74.97;101927.41;2112394;27;45917;-62
2023/01/04 00:54:59;;;;;;;;;3.75;3.25;;;;;12.30;75.14;101923.84;2106597;27;46198;-62
2023/01/04 00:56:00;;;;;;;;;3.00;2.67;;;;;12.30;74.75;101929.19;2107370;27;46892;-62
2023/01/04 00:57:01;;;;;;;;;2.00;2.00;;;;;12.28;74.93;101923.00;2108559;27;46585;-63
2023/01/04 00:58:01;;;;;;;;;2.67;2.67;;;;;12.29;74.95;101921.22;2111102;27;46623;-63
2023/01/04 00:59:03;;;;;;;;;4.67;4.67;;;;;12.29;74.97;101924.75;2106821;27;46501;-63
2023/01/04 01:00:04;;;;;;;;;3.00;3.00;;;;;12.30;75.23;101922.97;2111646;27;47029;-63
2023/01/04 01:01:06;;;;;;;;;3.00;3.00;;;;;12.32;75.13;101931.81;2109667;27;46118;-63
2023/01/04 01:02:06;;;;;;;;;2.50;2.50;;;;;12.31;75.09;101920.28;2108269;27;46700;-62
2023/01/04 01:03:07;;;;;;;;;4.33;4.00;;;;;12.31;75.07;101919.41;2110738;27;47622;-61
2023/01/04 01:04:11;;;;;;;;;2.00;2.00;;;;;12.31;74.91;101920.28;2113833;27;46396;-63
2023/01/04 01:05:11;;;;;;;;;2.25;2.25;;;;;12.31;75.18;101922.06;2109365;27;45298;-61
2023/01/04 01:06:12;;;;;;;;;3.00;3.00;;;;;12.31;75.11;101922.97;2111351;27;46515;-62
2023/01/04 01:07:12;;;;;;;;;3.50;3.50;;;;;12.31;75.08;101914.97;2097745;28;46394;-61
2023/01/04 01:08:25;;;;;;;;;2.67;2.67;;;;;12.32;75.02;101915.84;2104749;27;46999;-62
2023/01/04 01:09:25;;;;;;;;;4.25;3.00;;;;;12.31;74.95;101907.00;2107528;27;46760;-62
2023/01/04 01:10:26;;;;;;;;;3.33;3.33;;;;;12.32;74.94;101906.13;2103871;28;46298;-63
2023/01/04 01:11:27;;;;;;;;;3.33;3.00;;;;;12.32;74.93;101903.47;2114161;27;45762;-62
2023/01/04 01:12:28;;;;;;;;;3.00;3.00;;;;;12.32;74.96;101899.88;2113443;27;47270;-63
2023/01/04 01:13:29;;;;;;;;;3.00;3.00;;;;;12.32;74.81;101899.88;2107003;27;45962;-62
2023/01/04 01:14:29;;;;;;;;;4.33;3.00;;;;;12.31;75.30;101903.44;2105096;27;46820;-62
2023/01/04 01:15:29;;;;;;;;;5.33;4.00;;;;;12.31;75.12;101895.47;2108098;27;46367;-62
2023/01/04 01:16:30;;;;;;;;;3.00;3.00;;;;;12.31;75.22;101895.47;2099066;28;46562;-62
2023/01/04 01:17:31;;;;;;;;;5.00;5.00;;;;;12.30;75.41;101894.56;2100474;28;46336;-63
2023/01/04 01:18:37;;;;;;;;;2.00;2.00;;;;;12.30;75.13;101891.91;2106473;27;46224;-64
2023/01/04 01:19:37;;;;;;;;;3.25;3.25;;;;;12.30;74.98;101897.25;2109901;27;46255;-63
2023/01/04 01:20:42;;;;;;;;;4.00;3.00;;;;;12.30;75.06;101886.59;2110750;27;46823;-61
2023/01/04 01:21:43;;;;;;;;;2.50;2.50;;;;;12.30;75.14;101883.06;2106525;27;46588;-62
2023/01/04 01:22:43;;;;;;;;;4.00;3.00;;;;;12.30;75.01;101885.72;2110623;27;46891;-63
2023/01/04 01:23:44;;;;;;;;;3.33;2.67;;;;;12.29;75.32;101882.16;2106211;27;46588;-63
2023/01/04 01:24:44;;;;;;;;;2.00;2.00;;;;;12.28;75.33;101883.06;2105010;28;45938;-63
2023/01/04 01:25:44;;;;;;;;;2.67;2.67;;;;;12.28;75.27;101872.44;2111507;27;46720;-63
2023/01/04 01:26:45;;;;;;;;;3.00;3.00;;;;;12.29;75.19;101883.94;2106964;27;46521;-61
2023/01/04 01:27:46;;;;;;;;;2.00;2.00;;;;;12.29;75.15;101878.63;2109862;27;46930;-62
2023/01/04 01:28:46;;;;;;;;;5.67;5.00;;;;;12.29;75.19;101881.28;2110508;27;45812;-62
2023/01/04 01:29:46;;;;;;;;;4.33;4.00;;;;;12.29;75.19;101873.31;2113763;27;46862;-62
2023/01/04 01:30:47;;;;;;;;;3.00;3.00;;;;;12.28;75.16;101880.41;2105780;27;46576;-62
2023/01/04 01:31:47;;;;;;;;;4.33;3.67;;;;;12.29;75.46;101891.94;2105185;28;45645;-62
2023/01/04 01:32:47;;;;;;;;;3.00;3.00;;;;;12.28;75.25;101891.06;2105385;28;46903;-63
2023/01/04 01:33:49;;;;;;;;;4.00;3.67;;;;;12.28;75.31;101896.38;2110672;27;46326;-62
2023/01/04 01:34:50;;;;;;;;;2.25;2.25;;;;;12.28;75.38;101896.38;2112850;27;46056;-63
2023/01/04 01:35:50;;;;;;;;;3.33;3.33;;;;;12.31;75.33;101887.47;2111195;27;46663;-62
2023/01/04 01:36:50;;;;;;;;;3.00;3.00;;;;;12.31;75.49;101885.69;2110194;27;45278;-63
2023/01/04 01:37:51;;;;;;;;;4.00;2.33;;;;;12.31;75.46;101898.13;2107781;27;45751;-63
2023/01/04 01:38:51;;;;;;;;;3.00;3.00;;;;;12.31;75.33;101896.34;2112419;27;46160;-63
2023/01/04 01:39:52;;;;;;;;;3.33;3.33;;;;;12.32;75.40;101889.22;2107726;27;46240;-63
2023/01/04 01:40:52;;;;;;;;;3.00;3.00;;;;;12.31;75.32;101895.47;2109106;27;46508;-62
2023/01/04 01:41:53;;;;;;;;;5.00;5.00;;;;;12.32;75.46;101897.22;2066773;27;1245689;-62
2023/01/04 01:42:53;;;;;;;;;3.33;3.33;;;;;12.33;75.32;101885.72;2107108;27;46837;-62
2023/01/04 01:43:53;;;;;;;;;4.00;4.00;;;;;12.33;75.33;101894.56;2101708;28;46185;-63
2023/01/04 01:44:59;;;;;;;;;3.00;3.00;;;;;12.33;75.74;101899.00;2101270;28;46361;-63
2023/01/04 01:45:59;;;;;;;;;5.50;4.00;;;;;12.33;75.50;101899.00;2097990;28;46369;-62
2023/01/04 01:47:00;;;;;;;;;3.67;3.67;;;;;12.33;75.37;101889.25;2102692;28;46373;-61
2023/01/04 01:48:05;;;;;;;;;3.33;3.00;;;;;12.33;75.51;101886.59;2105832;28;46532;-62
2023/01/04 01:49:12;;;;;;;;;3.00;3.00;;;;;12.34;75.43;101888.34;2105470;28;47079;-62
2023/01/04 01:50:47;;;;;;;;;5.75;5.00;;;;;12.35;75.37;101903.41;2091748;28;46932;-62
2023/01/04 01:51:48;;;;;;;;;3.75;3.75;;;;;12.36;75.49;101904.31;2081041;28;47030;-62
2023/01/04 01:52:50;;;;;;;;;3.00;3.00;;;;;12.33;75.44;101883.03;2084496;28;45345;-63
2023/01/04 01:53:57;;;;;;;;;2.75;2.75;;;;;12.35;75.44;101882.13;2079033;28;46597;-62
2023/01/04 01:55:01;;;;;;;;;6.00;4.00;;;;;12.35;75.48;101874.13;2079147;28;46845;-63
2023/01/04 01:56:04;;;;;;;;;5.50;4.00;;;;;12.33;75.47;101883.94;2079187;28;46412;-63
2023/01/04 01:57:09;;;;;;;;;3.25;3.25;;;;;12.36;75.38;101881.22;2079045;28;46400;-62
2023/01/04 01:58:15;;;;;;;;;4.00;3.00;;;;;12.35;75.26;101890.09;2079409;28;46688;-62
2023/01/04 01:59:16;;;;;;;;;2.75;2.75;;;;;12.35;75.46;101866.16;2079424;28;46503;-62
2023/01/04 02:00:17;;;;;;;;;2.75;2.75;;;;;12.33;75.44;101886.59;2084498;28;46620;-62
2023/01/04 02:01:17;;;;;;;;;4.00;3.00;;;;;12.33;75.36;101885.72;2083599;28;45279;-62
2023/01/04 02:02:18;;;;;;;;;3.67;3.00;;;;;12.34;75.23;101892.78;2087604;28;46747;-62
2023/01/04 02:03:21;;;;;;;;;4.33;4.33;;;;;12.35;75.55;101881.25;2080363;28;46848;-62
2023/01/04 02:04:22;;;;;;;;;3.00;2.75;;;;;12.35;75.39;101883.91;2079492;28;45795;-62
2023/01/04 02:05:24;;;;;;;;;3.67;3.67;;;;;12.35;75.36;101878.59;2079075;28;46456;-62
2023/01/04 02:06:31;;;;;;;;;3.25;3.25;;;;;12.35;75.55;101881.25;2079438;28;46469;-63
2023/01/04 02:07:33;;;;;;;;;5.00;5.00;;;;;12.36;75.56;101877.69;2079493;28;45142;-63
2023/01/04 02:08:37;;;;;;;;;4.00;4.00;;;;;12.37;75.76;101877.66;2079456;28;46858;-62
2023/01/04 02:09:38;;;;;;;;;4.00;4.00;;;;;12.37;75.54;101876.78;2070493;28;46606;-63
2023/01/04 02:10:39;;;;;;;;;4.00;3.75;;;;;12.37;75.49;101883.00;2070245;28;47054;-62
2023/01/04 02:11:39;;;;;;;;;3.67;3.67;;;;;12.38;75.38;101870.56;2070803;28;46212;-63
2023/01/04 02:12:40;;;;;;;;;4.67;4.67;;;;;12.39;75.50;101888.28;2070804;28;46737;-62
2023/01/04 02:15:01;;;;;;;;;2.00;2.00;;;;;12.37;75.35;101893.63;2071045;28;46487;-62
2023/01/04 02:16:11;;;;;;;;;4.00;2.33;;;;;12.38;75.42;101891.84;2071092;28;47298;-62
2023/01/04 02:17:26;;;;;;;;;3.00;3.00;;;;;12.38;75.24;101878.53;2077868;28;46457;-62
2023/01/04 02:18:36;;;;;;;;;3.00;3.00;;;;;12.37;75.19;101883.00;2063981;28;46985;-63
2023/01/04 02:20:04;;;;;;;;;3.50;3.25;;;;;12.38;75.31;101881.19;2068273;28;45789;-63
2023/01/04 02:21:31;;;;;;;;;4.25;4.00;;;;;12.39;75.45;101885.63;2070747;28;45880;-62
2023/01/04 02:22:37;;;;;;;;;4.25;4.00;;;;;12.40;75.33;101878.53;2079139;28;46578;-61
2023/01/04 02:24:07;;;;;;;;;3.75;3.00;;;;;12.40;75.42;101871.41;2081833;28;46735;-63
2023/01/04 02:25:22;;;;;;;;;5.75;5.00;;;;;12.41;75.45;101874.97;2038552;28;46150;-60
2023/01/04 02:26:25;;;;;;;;;2.50;2.50;;;;;12.42;75.32;101885.59;2032488;28;47235;-63
2023/01/04 02:27:43;;;;;;;;;3.25;3.25;;;;;12.42;75.42;101898.00;2030829;28;46735;-63
2023/01/04 02:29:09;;;;;;;;;2.50;2.50;;;;;12.42;75.42;101887.38;2035610;28;46548;-61
2023/01/04 02:31:01;;;;;;;;;3.50;3.50;;;;;12.42;75.31;101887.38;2038826;28;45965;-63
2023/01/04 02:32:43;;;;;;;;;2.00;2.00;;;;;12.42;75.32;101898.91;2022671;29;46495;-63
2023/01/04 02:33:49;;;;;;;;;3.75;3.25;;;;;12.42;75.15;101896.22;2015040;29;46538;-62
2023/01/04 02:35:05;;;;;;;;;3.00;3.00;;;;;12.43;75.15;101894.47;2015309;29;46594;-62
2023/01/04 02:36:24;;;;;;;;;3.00;3.00;;;;;12.42;75.20;101893.56;2014922;29;46639;-62
2023/01/04 02:37:29;;;;;;;;;2.25;2.25;;;;;12.42;75.34;101890.91;2012101;29;46424;-63
2023/01/04 02:38:44;;;;;;;;;3.25;3.25;;;;;12.43;75.41;101889.13;2015139;29;46017;-63
2023/01/04 02:40:03;;;;;;;;;3.25;2.00;;;;;12.42;75.29;101893.56;2015161;29;46197;-61
2023/01/04 02:41:10;;;;;;;;;3.00;3.00;;;;;12.42;75.20;101882.94;2012049;28;46888;-63
2023/01/04 02:44:51;;;;;;;;;3.00;3.00;;;;;12.42;75.20;101884.72;2038210;28;46151;-62
2023/01/04 02:45:31;;;;;;;;;1.00;1.00;;;;;12.41;74.99;101889.16;2038882;28;47304;-63
2023/01/04 02:46:38;;;;;;;;;2.25;2.25;;;;;12.42;75.31;101906.00;2038902;28;46781;-62
2023/01/04 02:50:32;;;;;;;;;2.50;2.00;;;;;12.40;75.43;101895.38;2039408;28;46454;-62
2023/01/04 02:51:34;;;;;;;;;2.75;2.00;;;;;12.41;75.38;101901.56;2039112;28;46773;-62
2023/01/04 02:52:35;;;;;;;;;4.50;2.25;;;;;12.40;75.19;101897.16;2038710;28;47164;-62
2023/01/04 02:53:38;;;;;;;;;2.00;2.00;;;;;12.39;75.19;101882.97;2038239;28;46504;-63
2023/01/04 02:54:40;;;;;;;;;2.00;2.00;;;;;12.41;75.29;101888.28;2038773;28;46383;-61
2023/01/04 02:55:59;;;;;;;;;3.50;3.50;;;;;12.40;75.24;101894.50;2038466;28;46076;-62
2023/01/04 02:57:18;;;;;;;;;4.00;4.00;;;;;12.40;75.27;101889.16;2038674;28;46717;-62
2023/01/04 02:58:51;;;;;;;;;2.25;2.25;;;;;12.41;75.25;101888.28;2031158;29;46353;-62
2023/01/04 03:00:16;;;;;;;;;2.00;2.00;;;;;12.40;75.36;101898.03;2030777;29;46498;-62
2023/01/04 03:06:36;;;;;;;;;3.00;2.75;;;;;12.40;75.28;101891.84;2062454;28;47020;-63
2023/01/04 03:07:57;;;;;;;;;2.25;2.25;;;;;12.38;75.35;101890.06;2062547;28;46283;-63
2023/01/04 03:09:30;;;;;;;;;3.50;3.00;;;;;12.38;75.46;101894.50;2090079;28;46357;-62
2023/01/04 03:12:53;;;;;;;;;2.50;2.50;;;;;12.41;75.50;101877.63;2069601;28;47113;-61
2023/01/04 03:14:01;;;;;;;;;2.25;2.25;;;;;12.41;75.41;101885.59;2066591;28;46825;-63
2023/01/04 03:15:16;;;;;;;;;4.25;3.50;;;;;12.41;75.60;101880.28;2075560;28;46446;-62
2023/01/04 03:16:21;;;;;;;;;2.00;2.00;;;;;12.41;75.49;101869.63;2074813;28;46344;-61
2023/01/04 03:17:24;;;;;;;;;2.25;2.25;;;;;12.41;75.24;101878.50;2079010;28;46374;-62
2023/01/04 03:18:28;;;;;;;;;2.00;2.00;;;;;12.41;75.43;101872.28;2084264;28;46436;-62
2023/01/04 03:20:53;;;;;;;;;2.00;2.00;;;;;12.42;75.29;101871.41;2072977;28;46240;-62
2023/01/04 03:21:53;;;;;;;;;4.00;2.25;;;;;12.41;75.25;101883.81;2064774;28;47026;-63
2023/01/04 03:35:49;;;;;;;;;2.25;2.25;;;;;12.44;75.47;101862.50;2074414;28;46405;-62
2023/01/04 03:36:59;;;;;;;;;2.50;2.50;;;;;12.44;75.48;101865.16;2081501;28;46583;-61
2023/01/04 03:49:20;;;;;;;;;1.50;1.50;;;;;12.52;75.23;101847.31;2078337;28;47035;-62
2023/01/04 03:50:30;;;;;;;;;3.00;2.00;;;;;12.53;75.38;101840.22;2070973;28;46496;-63
2023/01/04 03:51:36;;;;;;;;;1.75;1.75;;;;;12.54;75.28;101841.97;2084907;28;46575;-62
2023/01/04 03:52:39;;;;;;;;;2.25;1.75;;;;;12.54;75.22;101844.63;2086520;28;46094;-62
2023/01/04 03:53:48;;;;;;;;;1.25;1.00;;;;;12.52;75.65;101839.31;2087039;28;46805;-62
2023/01/04 03:54:49;;;;;;;;;2.00;2.00;;;;;12.54;75.34;101841.97;2086335;28;46500;-63
2023/01/04 03:55:51;;;;;;;;;3.00;2.75;;;;;12.52;75.33;101839.31;2086752;28;46853;-62
2023/01/04 03:56:53;;;;;;;;;2.00;2.00;;;;;12.51;75.41;101834.91;2087478;28;47162;-62
2023/01/04 03:57:53;;;;;;;;;2.00;2.00;;;;;12.52;75.32;101839.31;2078444;28;46884;-63
2023/01/04 03:58:54;;;;;;;;;2.00;2.00;;;;;12.52;75.34;101849.09;2078688;28;46013;-63
2023/01/04 04:00:18;;;;;;;;;2.00;2.00;;;;;12.53;75.14;101840.22;2087400;28;46253;-62
2023/01/04 04:01:19;;;;;;;;;1.00;1.00;;;;;12.52;75.38;101839.31;2086367;28;46737;-63
2023/01/04 04:02:27;;;;;;;;;3.00;2.00;;;;;12.52;75.59;101834.00;2086438;28;46766;-62
2023/01/04 04:08:46;;;;;;;;;1.00;1.00;;;;;12.55;75.58;101810.00;2086293;28;46711;-62
2023/01/04 04:09:46;;;;;;;;;3.00;3.00;;;;;12.56;75.41;101810.88;2087262;28;46506;-62
2023/01/04 04:10:47;;;;;;;;;2.00;2.00;;;;;12.56;75.54;101808.22;2079029;28;46288;-62
2023/01/04 04:11:47;;;;;;;;;2.33;2.33;;;;;12.57;75.27;101818.84;2069993;28;46508;-62
2023/01/04 04:12:48;;;;;;;;;2.00;2.00;;;;;12.56;75.33;101817.06;2070281;28;46905;-62
2023/01/04 04:13:49;;;;;;;;;2.00;2.00;;;;;12.57;75.23;101832.16;2073153;28;44976;-63
2023/01/04 04:14:49;;;;;;;;;2.00;1.25;;;;;12.58;75.21;101825.97;2071414;28;46639;-61
2023/01/04 04:15:52;;;;;;;;;2.00;2.00;;;;;12.59;75.52;101834.84;2084882;28;46308;-62
2023/01/04 04:16:52;;;;;;;;;5.00;2.25;;;;;12.59;75.24;101813.53;2083940;28;46310;-62
2023/01/04 04:17:53;;;;;;;;;3.00;1.00;;;;;12.59;75.52;101821.50;2087049;28;46240;-62
2023/01/04 04:18:53;;;;;;;;;3.67;2.67;;;;;12.59;75.49;101827.72;2084704;28;46138;-63
2023/01/04 04:19:54;;;;;;;;;3.00;3.00;;;;;12.59;75.37;101818.84;2087460;28;46577;-61
2023/01/04 04:20:57;;;;;;;;;0.33;0.33;;;;;12.61;75.42;101822.38;2112464;27;46359;-61
2023/01/04 04:21:57;;;;;;;;;2.50;2.50;;;;;12.61;75.42;101833.03;2086242;28;46194;-62
2023/01/04 04:22:58;;;;;;;;;2.67;2.67;;;;;12.63;75.55;101824.09;2086788;28;46061;-63
2023/01/04 04:23:58;;;;;;;;;1.00;1.00;;;;;12.63;75.41;101826.78;2113334;27;45819;-63
2023/01/04 04:24:58;;;;;;;;;1.00;1.00;;;;;12.64;75.47;101832.97;2111024;27;45554;-62
2023/01/04 04:25:59;;;;;;;;;1.00;1.00;;;;;12.63;75.45;101824.09;2112762;27;46150;-62
2023/01/04 04:26:59;;;;;;;;;1.33;1.33;;;;;12.63;75.50;101825.91;2111359;27;46364;-62
2023/01/04 04:27:59;;;;;;;;;1.33;1.33;;;;;12.64;75.59;101819.66;2109468;27;47077;-62
2023/01/04 04:29:00;;;;;;;;;2.00;2.00;;;;;12.63;75.48;101824.09;2112953;27;46393;-63
2023/01/04 04:30:01;;;;;;;;;3.00;3.00;;;;;12.63;75.54;101823.22;2112333;27;46757;-63
2023/01/04 04:31:01;;;;;;;;;1.25;1.00;;;;;12.62;75.61;101827.69;2112569;27;47013;-63
2023/01/04 04:32:02;;;;;;;;;1.33;1.33;;;;;12.62;75.76;101821.47;2111845;27;46432;-63
2023/01/04 04:33:02;;;;;;;;;2.67;1.00;;;;;12.62;75.50;101826.78;2112026;27;46454;-62
2023/01/04 04:34:03;;;;;;;;;2.00;1.33;;;;;12.60;75.63;101834.81;2122030;27;46277;-63
2023/01/04 04:35:03;;;;;;;;;1.00;1.00;;;;;12.59;75.83;101827.72;2116523;27;46599;-62
2023/01/04 04:36:05;;;;;;;;;1.33;1.33;;;;;12.60;75.78;101837.47;2106410;28;46469;-63
2023/01/04 04:37:05;;;;;;;;;1.00;1.00;;;;;12.60;76.06;101834.81;2114839;27;45986;-63
2023/01/04 04:38:06;;;;;;;;;1.00;1.00;;;;;12.60;75.70;101816.16;2110352;27;45608;-62
2023/01/04 04:39:06;;;;;;;;;2.00;2.00;;;;;12.61;75.71;101827.69;2113083;27;46522;-63
2023/01/04 04:41:37;;;;;;;;;1.33;1.33;;;;;12.61;75.71;101825.03;2112582;27;46385;-64
2023/01/04 04:41:37;;;;;;;;;2.25;1.25;;;;;12.61;76.08;101820.59;2096097;28;46567;-61
2023/01/04 04:42:38;;;;;;;;;1.00;1.00;;;;;12.61;75.89;101833.91;2097429;28;46597;-62
2023/01/04 04:43:38;;;;;;;;;1.00;1.00;;;;;12.61;76.12;101825.91;2104469;28;46438;-61
2023/01/04 04:44:38;;;;;;;;;1.00;1.00;;;;;12.61;76.06;101822.38;2098485;28;46563;-62
2023/01/04 04:45:39;;;;;;;;;4.00;2.00;;;;;12.61;76.29;101838.34;2096751;28;46657;-62
2023/01/04 04:46:40;;;;;;;;;2.67;2.67;;;;;12.60;76.08;101828.59;2096379;28;46644;-62
2023/01/04 04:47:40;;;;;;;;;3.25;2.25;;;;;12.58;76.12;101825.97;2094930;28;46503;-62
2023/01/04 04:48:41;;;;;;;;;3.00;2.00;;;;;12.59;76.35;101824.19;2082647;28;45645;-62
2023/01/04 04:49:41;;;;;;;;;2.33;2.33;;;;;12.59;76.17;101818.84;2088039;28;45822;-63
2023/01/04 04:50:41;;;;;;;;;2.00;2.00;;;;;12.59;76.21;101825.06;2095199;28;46388;-62
2023/01/04 04:51:42;;;;;;;;;2.00;2.00;;;;;12.60;76.26;101820.63;2095797;28;46333;-62
2023/01/04 04:52:43;;;;;;;;;3.25;2.25;;;;;12.60;76.24;101831.25;2092679;28;45977;-63
2023/01/04 04:53:43;;;;;;;;;2.00;2.00;;;;;12.61;76.45;101822.38;2096328;28;46484;-63
2023/01/04 04:54:43;;;;;;;;;2.00;2.00;;;;;12.61;76.32;101817.03;2097181;28;46697;-61
2023/01/04 04:55:44;;;;;;;;;2.00;2.00;;;;;12.62;76.43;101826.78;2079931;28;46624;-63
2023/01/04 04:56:45;;;;;;;;;1.33;1.33;;;;;12.62;76.37;101818.81;2079873;28;46228;-62
2023/01/04 04:57:45;;;;;;;;;1.75;1.75;;;;;12.62;76.32;101816.16;2096853;28;46248;-62
2023/01/04 04:58:46;;;;;;;;;2.33;2.00;;;;;12.62;76.50;101806.38;2091467;28;46385;-63
2023/01/04 04:59:46;;;;;;;;;4.50;2.75;;;;;12.61;76.49;101817.94;2095619;28;46829;-62
2023/01/04 05:00:47;;;;;;;;;3.00;2.00;;;;;12.61;76.46;101820.59;2088314;28;46917;-62
2023/01/04 05:01:47;;;;;;;;;2.00;2.00;;;;;12.61;76.60;101811.72;2087790;28;46447;-63
2023/01/04 05:02:47;;;;;;;;;2.00;2.00;;;;;12.62;76.32;101814.34;2096717;28;46373;-62
2023/01/04 05:03:48;;;;;;;;;3.00;3.00;;;;;12.63;76.43;101816.13;2088392;28;46534;-63
2023/01/04 05:04:48;;;;;;;;;1.33;1.00;;;;;12.64;76.32;101811.66;2094511;28;47119;-62
2023/01/04 05:05:49;;;;;;;;;2.00;2.00;;;;;12.64;76.51;101817.88;2096525;28;46951;-61
2023/01/04 05:06:49;;;;;;;;;1.67;1.67;;;;;12.65;76.54;101811.66;2088022;28;47029;-63
2023/01/04 05:07:49;;;;;;;;;4.00;2.67;;;;;12.66;76.37;101804.53;2095555;28;46267;-62
2023/01/04 05:08:50;;;;;;;;;2.00;2.00;;;;;12.66;76.14;101815.19;2099637;28;46278;-63
2023/01/04 05:09:50;;;;;;;;;2.00;2.00;;;;;12.66;76.37;101809.88;2101297;28;46799;-63
2023/01/04 05:10:50;;;;;;;;;3.00;2.00;;;;;12.66;76.46;101804.53;2096854;28;46714;-62
2023/01/04 05:13:11;;;;;;;;;2.00;2.00;;;;;12.66;76.49;101791.22;2096377;28;46627;-61
2023/01/04 05:14:12;;;;;;;;;3.50;2.50;;;;;12.66;76.41;101793.88;2090886;28;46454;-62
2023/01/04 05:15:12;;;;;;;;;2.00;2.00;;;;;12.66;76.33;101794.75;2096508;28;46689;-62
2023/01/04 05:16:12;;;;;;;;;3.00;2.33;;;;;12.66;76.19;101805.41;2097083;28;47047;-62
2023/01/04 05:17:13;;;;;;;;;1.33;1.33;;;;;12.66;76.49;101810.75;2096898;28;46809;-61
2023/01/04 05:18:15;;;;;;;;;2.00;2.00;;;;;12.67;76.35;101798.31;2096212;28;45836;-63
2023/01/04 05:19:16;;;;;;;;;1.25;1.25;;;;;12.67;76.55;101793.88;2103155;28;46899;-62
2023/01/04 05:20:16;;;;;;;;;3.33;2.33;;;;;12.68;76.40;101789.41;2108067;27;45494;-62
2023/01/04 05:21:16;;;;;;;;;2.67;2.67;;;;;12.68;76.17;101787.63;2109682;27;46352;-62
2023/01/04 05:22:17;;;;;;;;;3.00;2.00;;;;;12.70;76.26;101792.94;2110839;27;46208;-62
2023/01/04 05:23:19;;;;;;;;;3.00;3.00;;;;;12.70;76.38;101787.59;2107286;27;46819;-63
2023/01/04 05:24:19;;;;;;;;;2.50;1.00;;;;;12.71;76.37;101796.50;2113973;27;46299;-61
2023/01/04 05:25:20;;;;;;;;;3.00;2.00;;;;;12.70;76.40;101792.94;2114481;27;46341;-62
2023/01/04 05:26:20;;;;;;;;;2.33;2.00;;;;;12.71;76.48;101810.72;2108535;27;46566;-62
2023/01/04 05:27:20;;;;;;;;;3.00;3.00;;;;;12.71;76.34;101797.38;2103300;28;46863;-61
2023/01/04 05:28:21;;;;;;;;;2.00;2.00;;;;;12.70;76.37;101798.25;2098917;28;46832;-62
2023/01/04 05:30:52;;;;;;;;;2.00;2.00;;;;;12.71;76.37;101800.06;2099945;27;46132;-62
2023/01/04 05:31:52;;;;;;;;;2.00;2.00;;;;;12.72;76.20;101800.94;2101839;28;46482;-62
2023/01/04 05:32:53;;;;;;;;;2.00;2.00;;;;;12.71;76.19;101808.03;2105134;28;46674;-62
2023/01/04 05:33:53;;;;;;;;;2.00;2.00;;;;;12.71;76.30;101804.50;2112994;27;45859;-62
2023/01/04 05:34:53;;;;;;;;;2.00;2.00;;;;;12.71;76.48;101810.72;2105904;27;46319;-62
2023/01/04 05:35:55;;;;;;;;;4.00;3.00;;;;;12.72;76.35;101811.59;2096520;28;46415;-63
2023/01/04 05:36:56;;;;;;;;;4.00;2.00;;;;;12.72;76.42;101816.91;2102850;28;46434;-63
2023/01/04 05:37:57;;;;;;;;;2.00;2.00;;;;;12.71;76.37;101817.81;2106551;27;46171;-63
2023/01/04 05:38:57;;;;;;;;;3.00;3.00;;;;;12.71;76.56;101816.03;2119778;27;46911;-62
2023/01/04 05:39:57;;;;;;;;;3.00;2.00;;;;;12.71;76.42;101820.47;2118162;27;45379;-62
2023/01/04 05:40:57;;;;;;;;;2.00;2.00;;;;;12.71;76.47;101799.19;2108467;27;46580;-61
2023/01/04 05:43:18;;;;;;;;;2.00;2.00;;;;;12.70;76.55;101808.91;2113906;27;46124;-63